Terminal Aerodrome Forecast
Issued by NWS Birmingham, AL

Home | Current Version | Previous Version | Text Only | Print | Product List | Glossary On
Versions: 1 2 3 4 5 6 7 8 9 10 11 12 13 14 15 16 17 18 19
998
FTUS44 KBMX 212323
TAFBHM
TAF
KBHM 212323Z 2200/2224 10005KT 6SM -RA BR OVC006
     FM220500 10003KT 4SM BR VCSH OVC004
     FM221600 07006KT P6SM VCSH OVC010
     FM222000 07006KT P6SM OVC020=

USA.gov is the U.S. government's official web portal to all federal, state and local government web resources and services.